Calico Basin, Nevada
Current Conditions -  °F | °C
As of 1:56 PM on Sunday 21 Dec 2014 (Local Time) from KHND Reporting Station
Clear Clear  
Wind Chill: 54°   Ceiling: Unl
Heat Index: 54°   Visibility: 10mi
Dew Point: 39°   Wind: 5mph
Humidity: 57%   Direction: 20°NNE
Pressure: 30.09"   Gusts: NA
Location:  35.8437°N, 115.134°W
Report Text: KHND 212156Z 02004KT 10SM CLR 12/04 A3009 RMK AO2 SLP194 T01220039
Loading
Personal Weather Stations






























Interactive Weather Map New forecast layout! Learn more

10-Day Weather Forecast

Advertisements
Track Severe Weather on mobile